createdAt,value
2022-10-11T00:01:00.532Z,21.20
2022-10-11T00:03:35.958Z,20.50
2022-10-11T00:06:06.343Z,18.50
2022-10-11T00:08:35.790Z,20.80
2022-10-11T00:11:07.266Z,22.60
2022-10-11T00:13:35.930Z,18.90
2022-10-11T00:16:10.503Z,28.50
2022-10-11T00:18:39.705Z,26.30
2022-10-11T00:21:12.066Z,20.20
2022-10-11T00:23:40.473Z,23.70
2022-10-11T00:26:11.230Z,19.50
2022-10-11T00:28:40.738Z,21.20
2022-10-11T00:31:16.091Z,19.50
2022-10-11T00:33:44.382Z,18.90
2022-10-11T00:36:14.976Z,17.50
2022-10-11T00:38:45.115Z,18.20
2022-10-11T00:41:14.839Z,16.00
2022-10-11T00:43:44.344Z,20.40
2022-10-11T00:46:18.466Z,15.60
2022-10-11T00:48:51.014Z,18.90
2022-10-11T00:51:53.583Z,16.10
2022-10-11T00:54:25.682Z,19.10
2022-10-11T00:56:59.284Z,19.90
2022-10-11T00:59:34.926Z,15.50
2022-10-11T01:02:05.201Z,15.50
2022-10-11T01:04:34.740Z,18.40
2022-10-11T01:07:03.070Z,13.20
2022-10-11T01:09:31.917Z,19.20
2022-10-11T01:12:05.311Z,21.10
2022-10-11T01:14:58.890Z,16.70
2022-10-11T01:18:18.230Z,19.70
2022-10-11T01:20:52.966Z,16.50
2022-10-11T01:23:58.273Z,20.80
2022-10-11T01:26:26.445Z,19.50
2022-10-11T01:29:42.369Z,19.20
2022-10-11T01:32:25.190Z,20.10
2022-10-11T01:35:06.794Z,22.20
2022-10-11T01:37:41.290Z,16.60
2022-10-11T01:40:17.270Z,18.60
2022-10-11T01:42:46.922Z,16.30
2022-10-11T01:45:18.835Z,21.50
2022-10-11T01:47:47.710Z,22.90
2022-10-11T01:50:37.929Z,22.30
2022-10-11T01:53:25.746Z,16.40
2022-10-11T01:56:06.709Z,15.00
2022-10-11T01:59:01.585Z,18.50
2022-10-11T02:01:48.842Z,18.10
2022-10-11T02:04:29.103Z,19.90
2022-10-11T02:07:30.762Z,17.20
2022-10-11T02:10:08.169Z,16.60
2022-10-11T02:12:48.914Z,26.20
2022-10-11T02:15:19.335Z,16.80
2022-10-11T02:17:56.632Z,16.40
2022-10-11T02:20:28.167Z,19.10
2022-10-11T02:23:27.506Z,18.80
2022-10-11T02:25:57.911Z,31.10
2022-10-11T02:28:31.693Z,25.50
2022-10-11T02:31:02.679Z,26.80
2022-10-11T02:33:42.091Z,23.70
2022-10-11T02:36:17.487Z,23.40
2022-10-11T02:38:50.869Z,23.80
2022-10-11T02:41:31.385Z,21.50
2022-10-11T02:44:07.165Z,17.10
2022-10-11T02:46:37.758Z,18.10
2022-10-11T02:49:08.809Z,22.10
2022-10-11T02:51:37.091Z,16.80
2022-10-11T02:54:05.533Z,22.20
2022-10-11T02:56:33.778Z,22.60
2022-10-11T02:59:01.915Z,25.20
2022-10-11T03:01:30.213Z,25.70
2022-10-11T03:03:58.529Z,25.40
2022-10-11T03:06:26.699Z,22.40
2022-10-11T03:08:54.837Z,25.60
2022-10-11T03:11:23.446Z,22.70
2022-10-11T03:13:51.921Z,21.00
2022-10-11T03:16:20.136Z,24.90
2022-10-11T03:18:48.438Z,24.70
2022-10-11T03:21:17.097Z,31.80
2022-10-11T03:23:45.345Z,22.10
2022-10-11T03:26:13.658Z,24.70
2022-10-11T03:28:42.422Z,21.00
2022-10-11T03:31:10.664Z,21.60
2022-10-11T03:33:38.936Z,20.20
2022-10-11T03:36:09.265Z,20.50
2022-10-11T03:38:37.753Z,22.30
2022-10-11T03:41:06.249Z,24.90
2022-10-11T03:43:34.475Z,23.40
2022-10-11T03:46:03.151Z,22.70
2022-10-11T03:48:31.746Z,19.40
2022-10-11T03:51:00.032Z,24.00
2022-10-11T03:53:28.274Z,20.50
2022-10-11T03:55:56.559Z,20.10
2022-10-11T03:58:24.846Z,19.90
2022-10-11T04:00:53.631Z,22.60
2022-10-11T04:03:21.839Z,24.90
2022-10-11T04:05:50.003Z,22.90
2022-10-11T04:08:18.669Z,21.80
2022-10-11T04:10:48.634Z,21.00
2022-10-11T04:13:17.594Z,18.50
2022-10-11T04:15:46.882Z,17.50
2022-10-11T04:18:15.290Z,21.30
2022-10-11T04:20:43.472Z,19.90
2022-10-11T04:23:11.626Z,18.90
2022-10-11T04:25:40.161Z,20.90
2022-10-11T04:28:09.537Z,19.40
2022-10-11T04:30:37.906Z,17.20
2022-10-11T04:33:06.216Z,19.70
2022-10-11T04:35:34.473Z,17.50
2022-10-11T04:38:02.851Z,17.10
2022-10-11T04:40:31.170Z,19.40
2022-10-11T04:42:59.412Z,18.20
2022-10-11T04:45:27.641Z,16.90
2022-10-11T04:47:56.386Z,18.70
2022-10-11T04:50:24.590Z,16.40
2022-10-11T04:52:58.811Z,18.10
2022-10-11T04:55:27.162Z,19.00
2022-10-11T04:57:55.831Z,15.80
2022-10-11T05:00:24.137Z,19.90
2022-10-11T05:02:53.185Z,23.50
2022-10-11T05:05:21.330Z,20.30
2022-10-11T05:07:49.627Z,20.60
2022-10-11T05:10:17.913Z,19.40
2022-10-11T05:12:46.166Z,18.90
2022-10-11T05:15:14.430Z,21.10
2022-10-11T05:17:42.550Z,18.30
2022-10-11T05:20:11.086Z,19.50
2022-10-11T05:22:39.267Z,18.50
2022-10-11T05:25:07.809Z,21.10
2022-10-11T05:27:36.011Z,20.20
2022-10-11T05:30:05.101Z,25.60
2022-10-11T05:32:33.722Z,29.40
2022-10-11T05:35:01.925Z,24.20
2022-10-11T05:37:30.286Z,21.60
2022-10-11T05:39:58.381Z,22.00
2022-10-11T05:42:27.004Z,22.30
2022-10-11T05:44:55.380Z,24.20
2022-10-11T05:47:23.648Z,18.70
2022-10-11T05:49:51.816Z,20.00
2022-10-11T05:52:21.795Z,25.90
2022-10-11T05:54:50.092Z,25.30
2022-10-11T05:57:18.407Z,21.10
2022-10-11T05:59:46.682Z,23.80
2022-10-11T06:02:14.824Z,31.70
2022-10-11T06:04:43.113Z,33.90
2022-10-11T06:07:11.389Z,42.00
2022-10-11T06:09:40.031Z,32.60
2022-10-11T06:12:08.287Z,34.00
2022-10-11T06:14:36.589Z,27.20
2022-10-11T06:17:04.813Z,23.70
2022-10-11T06:19:33.128Z,25.10
2022-10-11T06:22:01.394Z,23.60
2022-10-11T06:24:29.778Z,26.40
2022-10-11T06:26:58.015Z,22.40
2022-10-11T06:29:26.331Z,25.90
2022-10-11T06:31:54.589Z,33.40
2022-10-11T06:34:22.868Z,36.10
2022-10-11T06:36:51.210Z,26.60
2022-10-11T06:39:19.953Z,25.00
2022-10-11T06:41:48.180Z,31.60
2022-10-11T06:44:17.117Z,27.20
2022-10-11T06:46:45.491Z,25.80
2022-10-11T06:49:13.749Z,27.90
2022-10-11T06:51:41.970Z,32.40
2022-10-11T06:54:10.260Z,27.70
2022-10-11T06:56:39.315Z,30.80
2022-10-11T06:59:07.642Z,31.50
2022-10-11T07:01:35.882Z,32.60
2022-10-11T07:04:04.218Z,34.00
2022-10-11T07:06:32.531Z,34.30
2022-10-11T07:09:01.019Z,31.20
2022-10-11T07:11:29.351Z,34.40
2022-10-11T07:14:00.674Z,33.50
2022-10-11T07:16:29.188Z,28.10
2022-10-11T07:19:01.453Z,32.60
2022-10-11T07:21:31.698Z,31.80
2022-10-11T07:24:01.230Z,30.40
2022-10-11T07:26:36.855Z,38.30
2022-10-11T07:29:09.163Z,29.40
2022-10-11T07:31:40.546Z,28.80
2022-10-11T07:34:10.257Z,27.00
2022-10-11T07:36:38.707Z,23.40
2022-10-11T07:39:09.004Z,26.00
2022-10-11T07:41:44.680Z,26.00
2022-10-11T07:44:14.934Z,26.90
2022-10-11T07:46:43.239Z,24.20
2022-10-11T07:49:11.468Z,27.30
2022-10-11T07:51:39.623Z,28.70
2022-10-11T07:54:08.274Z,25.20
2022-10-11T07:56:38.190Z,25.50
2022-10-11T07:59:08.301Z,24.40
2022-10-11T08:01:36.637Z,25.50
2022-10-11T08:04:05.160Z,28.90
2022-10-11T08:06:33.440Z,22.50
2022-10-11T08:09:02.306Z,26.90
2022-10-11T08:11:36.470Z,24.90
2022-10-11T08:14:08.988Z,26.90
2022-10-11T08:16:39.200Z,27.00
2022-10-11T08:19:07.550Z,30.70
2022-10-11T08:21:36.415Z,45.80
2022-10-11T08:24:06.307Z,28.10
2022-10-11T08:26:35.295Z,24.50
2022-10-11T08:29:04.292Z,25.00
2022-10-11T08:31:34.709Z,34.50
2022-10-11T08:34:03.226Z,34.80
2022-10-11T08:36:31.531Z,27.80
2022-10-11T08:39:00.877Z,26.00
2022-10-11T08:41:38.270Z,24.40
2022-10-11T08:45:05.392Z,28.80
2022-10-11T08:47:31.333Z,23.30
2022-10-11T08:50:00.966Z,20.90
2022-10-11T08:52:53.851Z,31.50
2022-10-11T08:55:45.203Z,27.40
2022-10-11T08:58:17.693Z,20.80
2022-10-11T09:00:48.585Z,27.50
2022-10-11T09:03:38.877Z,33.00
2022-10-11T09:06:16.358Z,22.40
2022-10-11T09:09:05.817Z,20.50
2022-10-11T09:11:47.563Z,30.60
2022-10-11T09:14:54.197Z,24.60
2022-10-11T09:17:41.531Z,21.30
2022-10-11T09:20:53.165Z,23.30
2022-10-11T09:23:33.201Z,32.80
2022-10-11T09:26:19.014Z,19.80
2022-10-11T09:28:51.273Z,23.00
2022-10-11T09:31:19.634Z,28.40
2022-10-11T09:33:49.850Z,23.90
2022-10-11T09:36:44.333Z,20.80
2022-10-11T09:39:35.609Z,21.60
2022-10-11T09:42:09.379Z,20.10
2022-10-11T09:44:41.409Z,21.50
2022-10-11T09:47:15.695Z,24.80
2022-10-11T09:50:03.835Z,22.10
2022-10-11T09:52:33.218Z,19.80
2022-10-11T09:55:02.758Z,21.70
2022-10-11T09:57:37.792Z,27.80
2022-10-11T10:00:08.669Z,23.10
2022-10-11T10:02:45.148Z,29.60
2022-10-11T10:05:17.621Z,23.80
2022-10-11T10:08:08.552Z,25.10
2022-10-11T10:11:00.394Z,22.00
2022-10-11T10:13:43.545Z,22.30
2022-10-11T10:16:27.964Z,27.40
2022-10-11T10:19:17.557Z,22.80
2022-10-11T10:21:49.794Z,41.70
2022-10-11T10:24:31.868Z,28.40
2022-10-11T10:27:18.587Z,32.30
2022-10-11T10:30:09.922Z,23.00
2022-10-11T10:33:00.766Z,18.90
2022-10-11T10:35:41.657Z,24.50
2022-10-11T10:38:24.125Z,17.70
2022-10-11T10:41:04.414Z,18.70
2022-10-11T10:43:38.770Z,19.20
2022-10-11T10:46:20.614Z,38.90
2022-10-11T10:49:34.570Z,17.90
2022-10-11T10:52:05.574Z,21.50
2022-10-11T10:54:59.985Z,17.50
2022-10-11T10:57:46.847Z,26.80
2022-10-11T11:00:21.675Z,25.00
2022-10-11T11:03:06.237Z,23.10
2022-10-11T11:06:05.405Z,18.10
2022-10-11T11:08:46.922Z,24.60
2022-10-11T11:11:40.226Z,36.10
2022-10-11T11:14:29.853Z,20.50
2022-10-11T11:17:37.039Z,27.20
2022-10-11T11:20:20.574Z,25.30
2022-10-11T11:23:01.342Z,23.60
2022-10-11T11:25:54.944Z,22.10
2022-10-11T11:28:32.279Z,27.30
2022-10-11T11:31:31.808Z,56.60
2022-10-11T11:34:19.083Z,26.30
2022-10-11T11:37:00.973Z,23.00
2022-10-11T11:40:22.322Z,38.60
2022-10-11T11:42:56.006Z,25.30
2022-10-11T11:45:31.655Z,37.20
2022-10-11T11:48:05.744Z,24.00
2022-10-11T11:50:47.093Z,27.30
2022-10-11T11:54:06.361Z,23.10
2022-10-11T11:56:53.053Z,30.40
2022-10-11T11:59:53.402Z,28.70
2022-10-11T12:02:22.420Z,26.80
2022-10-11T12:04:52.326Z,35.30
2022-10-11T12:07:23.965Z,30.20
2022-10-11T12:09:55.326Z,29.20
2022-10-11T12:12:36.365Z,19.60
2022-10-11T12:15:26.259Z,26.70
2022-10-11T12:17:57.606Z,24.90
2022-10-11T12:20:31.636Z,30.40
2022-10-11T12:23:20.176Z,26.60
2022-10-11T12:26:27.388Z,27.10
2022-10-11T12:29:18.371Z,37.50
2022-10-11T12:32:06.834Z,24.20
2022-10-11T12:34:36.804Z,30.70
2022-10-11T12:37:20.386Z,22.30
2022-10-11T12:39:56.213Z,32.10
2022-10-11T12:42:29.318Z,25.10
2022-10-11T12:45:15.758Z,30.70
2022-10-11T12:47:43.978Z,21.20
2022-10-11T12:50:12.137Z,21.00
2022-10-11T12:52:58.370Z,27.00
2022-10-11T12:55:46.549Z,26.80
2022-10-11T12:58:29.990Z,19.70
2022-10-11T13:00:59.368Z,23.00
2022-10-11T13:03:40.027Z,22.10
2022-10-11T13:06:27.226Z,26.00
2022-10-11T13:09:07.333Z,23.40
2022-10-11T13:12:06.957Z,21.80
2022-10-11T13:14:41.810Z,22.10
2022-10-11T13:17:37.980Z,40.10
2022-10-11T13:20:18.069Z,24.80
2022-10-11T13:22:49.899Z,26.80
2022-10-11T13:25:21.636Z,35.70
2022-10-11T13:27:53.490Z,24.80
2022-10-11T13:30:31.775Z,24.80
2022-10-11T13:33:03.039Z,40.60
2022-10-11T13:35:34.941Z,21.50
2022-10-11T13:38:08.375Z,26.10
2022-10-11T13:40:37.962Z,49.90
2022-10-11T13:43:06.450Z,20.80
2022-10-11T13:45:37.310Z,21.30
2022-10-11T13:48:15.102Z,22.70
2022-10-11T13:50:51.362Z,24.80
2022-10-11T13:53:23.060Z,24.50
2022-10-11T13:55:54.784Z,20.90
2022-10-11T13:58:45.373Z,25.50
2022-10-11T14:01:17.198Z,25.30
2022-10-11T14:04:07.947Z,17.50
2022-10-11T14:06:48.161Z,36.80
2022-10-11T14:09:29.492Z,35.30
2022-10-11T14:12:29.821Z,25.30
2022-10-11T14:15:00.822Z,20.70
2022-10-11T14:17:45.115Z,19.70
2022-10-11T14:20:33.775Z,30.80
2022-10-11T14:23:02.247Z,28.60
2022-10-11T14:25:30.782Z,18.80
2022-10-11T14:27:59.465Z,18.90
2022-10-11T14:30:31.677Z,13.30
2022-10-11T14:33:02.911Z,14.10
2022-10-11T14:38:03.154Z,12.50
2022-10-11T14:40:32.043Z,24.80
2022-10-11T14:43:00.253Z,25.70
2022-10-11T14:45:29.317Z,24.80
2022-10-11T14:47:57.627Z,11.90
2022-10-11T14:50:39.477Z,41.00
2022-10-11T14:53:12.393Z,23.20
2022-10-11T14:55:42.245Z,28.10
2022-10-11T14:58:14.991Z,24.30
2022-10-11T15:00:44.689Z,21.50
2022-10-11T15:03:14.358Z,25.60
2022-10-11T15:05:42.543Z,38.50
2022-10-11T15:08:12.346Z,12.20
2022-10-11T15:10:41.715Z,19.20
2022-10-11T15:13:10.459Z,26.30
2022-10-11T15:15:41.696Z,14.60
2022-10-11T15:18:16.831Z,18.70
2022-10-11T15:20:46.705Z,26.40
2022-10-11T15:23:15.335Z,24.90
2022-10-11T15:25:43.588Z,22.40
2022-10-11T15:28:31.867Z,18.00
2022-10-11T15:31:00.789Z,22.60
2022-10-11T15:33:29.050Z,21.50
2022-10-11T15:35:57.328Z,26.80
2022-10-11T15:38:26.177Z,25.20
2022-10-11T15:40:55.005Z,22.90
2022-10-11T15:43:25.072Z,25.90
2022-10-11T15:45:55.809Z,21.70
2022-10-11T15:48:26.721Z,22.40
2022-10-11T15:50:55.693Z,25.60
2022-10-11T15:53:31.470Z,29.70
2022-10-11T15:56:09.472Z,23.50
2022-10-11T15:58:41.869Z,21.40
2022-10-11T16:01:15.785Z,23.10
2022-10-11T16:03:45.152Z,25.30
2022-10-11T16:06:13.699Z,26.30
2022-10-11T16:08:42.330Z,39.30
2022-10-11T16:11:12.218Z,36.60
2022-10-11T16:13:40.604Z,44.70
2022-10-11T16:16:10.092Z,38.40
2022-10-11T16:18:39.011Z,41.50
2022-10-11T16:21:10.677Z,43.30
2022-10-11T16:23:39.291Z,41.30
2022-10-11T16:26:10.489Z,42.90
2022-10-11T16:28:39.465Z,39.40
2022-10-11T16:31:14.418Z,36.50
2022-10-11T16:36:32.664Z,36.70
2022-10-11T16:39:20.333Z,26.30
2022-10-11T16:41:48.582Z,38.70
2022-10-11T16:44:19.574Z,41.00
2022-10-11T16:46:49.140Z,43.20
2022-10-11T16:49:22.748Z,53.40
2022-10-11T16:51:53.899Z,56.50
2022-10-11T16:54:22.999Z,41.80
2022-10-11T16:56:51.350Z,40.90
2022-10-11T16:59:20.237Z,33.20
2022-10-11T17:01:49.135Z,29.30
2022-10-11T17:04:17.289Z,32.20
2022-10-11T17:06:45.487Z,30.10
2022-10-11T17:09:14.763Z,32.90
2022-10-11T17:11:43.677Z,31.40
2022-10-11T17:14:13.907Z,40.40
2022-10-11T17:16:42.607Z,43.70
2022-10-11T17:19:13.347Z,35.80
2022-10-11T17:21:42.130Z,35.30
2022-10-11T17:24:10.446Z,38.40
2022-10-11T17:26:38.683Z,41.60
2022-10-11T17:29:06.809Z,47.20
2022-10-11T17:31:36.774Z,64.70
2022-10-11T17:34:05.071Z,62.10
2022-10-11T17:36:36.428Z,67.00
2022-10-11T17:39:08.028Z,71.90
2022-10-11T17:41:36.768Z,61.90
2022-10-11T17:44:05.538Z,60.90
2022-10-11T17:46:34.440Z,69.50
2022-10-11T17:49:06.385Z,69.90
2022-10-11T17:51:36.669Z,73.10
2022-10-11T17:54:06.485Z,82.10
2022-10-11T17:56:37.877Z,75.00
2022-10-11T17:59:08.126Z,64.80
2022-10-11T18:01:36.604Z,57.70
2022-10-11T18:04:06.429Z,49.00
2022-10-11T18:06:39.472Z,40.70
2022-10-11T18:09:07.711Z,44.30
2022-10-11T18:11:35.914Z,47.90
2022-10-11T18:14:05.475Z,59.90
2022-10-11T18:16:35.424Z,51.90
2022-10-11T18:19:08.376Z,54.30
2022-10-11T18:21:37.916Z,45.80
2022-10-11T18:24:16.753Z,54.00
2022-10-11T18:26:46.363Z,81.70
2022-10-11T18:29:15.225Z,63.90
2022-10-11T18:31:43.541Z,82.60
2022-10-11T18:34:15.037Z,91.00
2022-10-11T18:36:43.286Z,89.30
2022-10-11T18:39:15.201Z,92.90
2022-10-11T18:41:45.611Z,85.10
2022-10-11T18:44:15.769Z,81.00
2022-10-11T18:46:44.379Z,81.80
2022-10-11T18:49:13.818Z,78.70
2022-10-11T18:51:43.262Z,72.70
2022-10-11T18:54:15.449Z,63.20
2022-10-11T18:56:47.039Z,62.20
2022-10-11T18:59:15.726Z,58.50
2022-10-11T19:01:45.359Z,63.70
2022-10-11T19:04:18.354Z,52.40
2022-10-11T19:06:48.734Z,50.50
2022-10-11T19:09:26.231Z,53.70
2022-10-11T19:11:56.565Z,52.20
2022-10-11T19:14:28.835Z,53.30
2022-10-11T19:16:57.870Z,54.40
2022-10-11T19:19:28.862Z,59.00
2022-10-11T19:21:57.269Z,57.50
2022-10-11T19:24:27.785Z,55.50
2022-10-11T19:27:02.043Z,57.80
2022-10-11T19:29:32.509Z,65.40
2022-10-11T19:32:03.773Z,55.70
2022-10-11T19:34:32.911Z,59.90
2022-10-11T19:37:01.350Z,49.20
2022-10-11T19:39:30.059Z,48.50
2022-10-11T19:41:58.301Z,49.10
2022-10-11T19:44:27.310Z,52.50
2022-10-11T19:46:55.500Z,50.00
2022-10-11T19:49:25.967Z,47.30
2022-10-11T19:51:55.710Z,52.40
2022-10-11T19:54:24.367Z,48.10
2022-10-11T19:56:52.777Z,52.30
2022-10-11T19:59:21.333Z,47.60
2022-10-11T20:01:52.813Z,48.50
2022-10-11T20:04:50.487Z,51.50
2022-10-11T20:07:10.635Z,49.40
2022-10-11T20:09:38.931Z,47.40
2022-10-11T20:12:07.429Z,55.90
2022-10-11T20:14:35.620Z,50.30
2022-10-11T20:17:03.866Z,46.50
2022-10-11T20:19:32.245Z,43.40
2022-10-11T20:22:01.568Z,42.10
2022-10-11T20:24:33.706Z,46.90
2022-10-11T20:27:04.977Z,43.50
2022-10-11T20:29:33.581Z,43.00
2022-10-11T20:32:01.814Z,41.50
2022-10-11T20:34:30.775Z,42.50
2022-10-11T20:36:59.709Z,45.80
2022-10-11T20:39:27.951Z,42.40
2022-10-11T20:41:56.136Z,44.40
2022-10-11T20:44:24.372Z,42.50
2022-10-11T20:46:52.534Z,46.00
2022-10-11T20:49:20.803Z,40.60
2022-10-11T20:51:49.211Z,43.80
2022-10-11T20:54:17.819Z,41.00
2022-10-11T20:56:46.234Z,44.40
2022-10-11T20:59:14.421Z,46.70
2022-10-11T21:01:43.016Z,49.30
2022-10-11T21:04:18.883Z,48.70
2022-10-11T21:06:48.880Z,49.70
2022-10-11T21:09:17.570Z,76.90
2022-10-11T21:11:46.375Z,89.00
2022-10-11T21:14:15.070Z,88.70
2022-10-11T21:16:43.918Z,75.60
2022-10-11T21:19:16.350Z,75.20
2022-10-11T21:21:53.316Z,64.20
2022-10-11T21:24:22.278Z,57.50
2022-10-11T21:26:50.634Z,48.60
2022-10-11T21:29:19.022Z,57.30
2022-10-11T21:31:47.172Z,51.80
2022-10-11T21:34:15.667Z,49.20
2022-10-11T21:36:43.925Z,61.40
2022-10-11T21:39:12.174Z,54.70
2022-10-11T21:41:42.442Z,44.40
2022-10-11T21:44:10.697Z,49.00
2022-10-11T21:49:27.201Z,36.10
2022-10-11T21:51:56.515Z,38.90
2022-10-11T21:54:24.681Z,35.50
2022-10-11T21:56:52.960Z,84.40
2022-10-11T21:59:21.138Z,63.30
2022-10-11T22:01:49.396Z,55.10
2022-10-11T22:04:17.708Z,52.50
2022-10-11T22:06:45.901Z,46.30
2022-10-11T22:09:14.169Z,35.40
2022-10-11T22:11:42.396Z,35.40
2022-10-11T22:14:10.590Z,36.90
2022-10-11T22:16:39.386Z,31.10
2022-10-11T22:19:07.747Z,28.80
2022-10-11T22:21:35.900Z,31.40
2022-10-11T22:24:04.377Z,28.10
2022-10-11T22:26:35.022Z,30.70
2022-10-11T22:29:03.273Z,33.60
2022-10-11T22:31:31.457Z,27.90
2022-10-11T22:34:01.518Z,32.40
2022-10-11T22:36:33.946Z,33.70
2022-10-11T22:39:08.012Z,30.40
2022-10-11T22:41:36.794Z,36.30
2022-10-11T22:44:05.078Z,35.30
2022-10-11T22:46:33.354Z,33.40
2022-10-11T22:49:01.610Z,31.90
2022-10-11T22:51:29.837Z,30.10
2022-10-11T22:53:58.241Z,32.50
2022-10-11T22:56:26.437Z,33.80
2022-10-11T22:58:54.630Z,32.80
2022-10-11T23:01:22.745Z,31.20
2022-10-11T23:03:50.957Z,27.00
2022-10-11T23:06:19.251Z,30.40
2022-10-11T23:08:47.502Z,32.10
2022-10-11T23:11:15.658Z,30.00
2022-10-11T23:13:43.972Z,34.90
2022-10-11T23:16:13.873Z,29.70
2022-10-11T23:18:42.346Z,32.60
2022-10-11T23:21:10.878Z,28.10
2022-10-11T23:23:39.955Z,28.70
2022-10-11T23:26:12.721Z,30.30
2022-10-11T23:28:42.507Z,29.30
2022-10-11T23:31:16.800Z,30.20
2022-10-11T23:33:46.519Z,25.60
2022-10-11T23:36:28.211Z,27.00
2022-10-11T23:38:58.744Z,28.00
2022-10-11T23:41:29.523Z,27.40
2022-10-11T23:43:58.988Z,26.10
2022-10-11T23:46:27.333Z,25.90
2022-10-11T23:48:55.685Z,25.50
2022-10-11T23:51:23.992Z,31.20
2022-10-11T23:53:52.187Z,34.80
2022-10-11T23:56:20.459Z,24.60
2022-10-11T23:58:48.738Z,29.90
